Terminal Aerodrome Forecast
Issued by NWS Twin Cities, MN

Home | Current Version | Previous Version | Text Only | Print | Product List | Glossary Off
Versions: 1 2 3 4 5 6 7 8 9 10 11 12 13 14 15 16 17 18 19

000
FTUS43 KMPX 191743
TAFEAU
TAF
KEAU 191743Z 1918/2018 14008KT P6SM BKN200
     FM192200 12010KT 6SM -TSRA SCT030 OVC050CB
     FM200000 12010KT P6SM BKN090
     FM200300 13009KT P6SM VCTS SCT060CB BKN250
      TEMPO 2004/2007 2SM TSRA BR BKN025CB OVC100
     FM200800 VRB03KT P6SM BKN015
     FM201400 35008KT P6SM SKC=

USA.gov is the U.S. government's official web portal to all federal, state and local government web resources and services.